Abersoch, United Kingdom
Current Conditions -  °F | °C
As of 7:50 PM on Tuesday 21 Oct 2014 (Local Time) from EGOV Reporting Station
Broken Clouds Broken Clouds  
Wind Chill: 50°   Ceiling: 4200
Heat Index: 50°   Visibility: 6mi
Dew Point: 37°   Wind: 20mph
Humidity: 62%   Direction: 310°NW
Pressure: 30.09"   Gusts: NA
Location:  52.82°N, 4.51°W
Report Text: EGOV 211850Z 31017KT 9999 BKN042 10/03 Q1019 BLU NOSIG
Loading
Personal Weather Stations






























Interactive Weather Map
Tropical Storm Tracking
New forecast layout! Learn more

10-Day Weather Forecast

Advertisements
Track Severe Weather on mobile